createdAt,value
2019-01-31T00:02:31.175Z,96648.35
2019-01-31T00:05:44.704Z,96653.13
2019-01-31T00:08:45.659Z,96643.16
2019-01-31T00:11:53.071Z,96643.97
2019-01-31T00:14:41.457Z,96637.38
2019-01-31T00:17:28.071Z,96633.91
2019-01-31T00:20:52.080Z,96644.69
2019-01-31T00:23:47.205Z,96649.52
2019-01-31T00:26:42.860Z,96653.81
2019-01-31T00:29:40.515Z,96656.39
2019-01-31T00:32:21.062Z,96653.42
2019-01-31T00:35:47.422Z,96653.42
2019-01-31T00:38:27.422Z,96670.20
2019-01-31T00:41:51.075Z,96662.87
2019-01-31T00:45:11.713Z,96668.45
2019-01-31T00:48:07.034Z,96673.63
2019-01-31T00:50:40.594Z,96671.05
2019-01-31T00:53:32.716Z,96673.60
2019-01-31T00:56:12.905Z,96674.48
2019-01-31T00:59:16.302Z,96678.03
2019-01-31T01:02:43.603Z,96680.63
2019-01-31T01:05:49.406Z,96669.02
2019-01-31T01:08:31.046Z,96662.59
2019-01-31T01:11:19.969Z,96658.42
2019-01-31T01:14:21.119Z,96655.44
2019-01-31T01:17:25.511Z,96656.38
2019-01-31T01:20:06.950Z,96659.02
2019-01-31T01:23:29.818Z,96670.72
2019-01-31T01:26:21.572Z,96672.50
2019-01-31T01:29:15.655Z,96679.03
2019-01-31T01:32:05.201Z,96671.73
2019-01-31T01:35:38.404Z,96676.42
2019-01-31T01:38:56.068Z,96679.45
2019-01-31T01:42:10.802Z,96687.30
2019-01-31T01:45:12.647Z,96697.17
2019-01-31T01:47:57.120Z,96696.67
2019-01-31T01:51:20.828Z,96702.70
2019-01-31T01:54:18.522Z,96699.56
2019-01-31T01:57:12.513Z,96699.45
2019-01-31T02:00:13.996Z,96696.45
2019-01-31T02:03:25.929Z,96703.27
2019-01-31T02:06:35.034Z,96700.69
2019-01-31T02:09:39.089Z,96701.07
2019-01-31T02:12:12.992Z,96695.49
2019-01-31T02:15:17.652Z,96689.17
2019-01-31T02:17:57.907Z,96686.70
2019-01-31T02:20:58.444Z,96691.34
2019-01-31T02:24:01.687Z,96690.41
2019-01-31T02:26:59.925Z,96691.02
2019-01-31T02:30:07.838Z,96693.72
2019-01-31T02:33:11.022Z,96695.99
2019-01-31T02:36:34.537Z,96703.80
2019-01-31T02:39:43.066Z,96712.06
2019-01-31T02:42:24.215Z,96712.52
2019-01-31T02:45:16.245Z,96709.00
2019-01-31T02:47:52.359Z,96713.63
2019-01-31T02:50:54.104Z,96712.64
2019-01-31T02:53:51.483Z,96718.09
2019-01-31T02:56:59.755Z,96719.65
2019-01-31T02:59:37.904Z,96720.09
2019-01-31T03:02:29.686Z,96717.52
2019-01-31T03:05:20.263Z,96718.36
2019-01-31T03:08:10.629Z,96714.86
2019-01-31T03:11:32.143Z,96717.42
2019-01-31T03:14:19.529Z,96708.78
2019-01-31T03:17:36.961Z,96719.06
2019-01-31T03:20:28.843Z,96715.63
2019-01-31T03:23:25.046Z,96720.76
2019-01-31T03:26:24.861Z,96723.77
2019-01-31T03:29:10.599Z,96716.92
2019-01-31T03:32:01.876Z,96708.34
2019-01-31T03:35:09.948Z,96713.53
2019-01-31T03:37:58.087Z,96717.01
2019-01-31T03:41:18.521Z,96719.74
2019-01-31T03:44:30.509Z,96726.72
2019-01-31T03:47:03.062Z,96725.13
2019-01-31T03:49:46.591Z,96723.89
2019-01-31T03:52:50.261Z,96717.05
2019-01-31T03:56:04.870Z,96717.56
2019-01-31T03:59:02.777Z,96723.22
2019-01-31T04:01:53.733Z,96718.13
2019-01-31T04:04:28.176Z,96718.22
2019-01-31T04:06:54.932Z,96723.00
2019-01-31T04:09:21.776Z,96724.37
2019-01-31T04:11:48.354Z,96725.73
2019-01-31T04:14:14.822Z,96726.67
2019-01-31T04:16:41.480Z,96729.72
2019-01-31T04:19:08.318Z,96733.65
2019-01-31T04:21:34.814Z,96740.48
2019-01-31T04:24:01.369Z,96728.50
2019-01-31T04:26:28.083Z,96736.23
2019-01-31T04:28:54.601Z,96725.86
2019-01-31T04:31:21.356Z,96721.59
2019-01-31T04:33:47.967Z,96723.28
2019-01-31T04:36:14.424Z,96723.60
2019-01-31T04:38:40.970Z,96727.47
2019-01-31T04:41:07.561Z,96725.86
2019-01-31T04:43:34.110Z,96730.25
2019-01-31T04:46:00.602Z,96724.34
2019-01-31T04:48:27.063Z,96734.67
2019-01-31T04:50:53.629Z,96733.84
2019-01-31T04:53:20.271Z,96733.00
2019-01-31T04:55:46.845Z,96741.66
2019-01-31T04:58:13.526Z,96748.55
2019-01-31T05:00:40.351Z,96752.43
2019-01-31T05:03:07.076Z,96753.31
2019-01-31T05:05:33.564Z,96754.59
2019-01-31T05:08:00.137Z,96757.20
2019-01-31T05:10:26.640Z,96754.63
2019-01-31T05:12:53.283Z,96760.61
2019-01-31T05:15:19.782Z,96763.19
2019-01-31T05:17:46.278Z,96764.05
2019-01-31T05:20:15.614Z,96764.50
2019-01-31T05:22:42.149Z,96765.80
2019-01-31T05:25:10.062Z,96766.65
2019-01-31T05:27:36.547Z,96773.51
2019-01-31T05:30:04.004Z,96769.66
2019-01-31T05:32:30.565Z,96776.92
2019-01-31T05:34:57.185Z,96782.91
2019-01-31T05:37:23.682Z,96776.92
2019-01-31T05:39:50.674Z,96784.19
2019-01-31T05:42:18.491Z,96791.06
2019-01-31T05:44:45.006Z,96784.62
2019-01-31T05:47:11.524Z,96788.50
2019-01-31T05:49:38.042Z,96785.93
2019-01-31T05:52:04.706Z,96786.33
2019-01-31T05:54:31.264Z,96780.75
2019-01-31T05:56:57.980Z,96784.19
2019-01-31T05:59:24.587Z,96782.05
2019-01-31T06:01:51.384Z,96782.92
2019-01-31T06:04:17.898Z,96783.38
2019-01-31T06:06:44.388Z,96788.52
2019-01-31T06:09:10.954Z,96788.06
2019-01-31T06:11:37.598Z,96790.64
2019-01-31T06:14:04.323Z,96788.50
2019-01-31T06:16:30.835Z,96786.77
2019-01-31T06:18:57.567Z,96780.33
2019-01-31T06:21:24.098Z,96769.22
2019-01-31T06:23:50.699Z,96782.50
2019-01-31T06:26:17.491Z,96780.36
2019-01-31T06:28:44.053Z,96785.45
2019-01-31T06:31:10.540Z,96789.70
2019-01-31T06:33:37.090Z,96800.80
2019-01-31T06:36:03.671Z,96798.59
2019-01-31T06:38:30.294Z,96800.67
2019-01-31T06:40:58.131Z,96805.38
2019-01-31T06:43:24.619Z,96802.41
2019-01-31T06:45:51.222Z,96812.61
2019-01-31T06:48:17.958Z,96810.08
2019-01-31T06:50:44.658Z,96808.80
2019-01-31T06:53:11.254Z,96807.94
2019-01-31T06:55:37.802Z,96810.04
2019-01-31T06:58:04.563Z,96813.50
2019-01-31T07:00:31.421Z,96815.64
2019-01-31T07:02:58.244Z,96822.95
2019-01-31T07:05:25.123Z,96825.59
2019-01-31T07:07:51.697Z,96829.09
2019-01-31T07:10:23.302Z,96815.45
2019-01-31T07:12:50.223Z,96824.05
2019-01-31T07:15:17.019Z,96823.20
2019-01-31T07:17:43.748Z,96824.47
2019-01-31T07:20:11.417Z,96824.93
2019-01-31T07:22:37.940Z,96829.20
2019-01-31T07:25:05.223Z,96835.19
2019-01-31T07:27:31.738Z,96835.14
2019-01-31T07:29:58.245Z,96841.14
2019-01-31T07:32:24.758Z,96840.28
2019-01-31T07:34:51.498Z,96838.14
2019-01-31T07:37:18.260Z,96843.34
2019-01-31T07:39:44.798Z,96846.33
2019-01-31T07:42:11.372Z,96846.34
2019-01-31T07:44:37.968Z,96848.06
2019-01-31T07:47:06.674Z,96848.08
2019-01-31T07:49:33.263Z,96852.78
2019-01-31T07:51:59.836Z,96848.88
2019-01-31T07:54:26.333Z,96854.02
2019-01-31T07:56:53.062Z,96846.75
2019-01-31T07:59:19.603Z,96852.77
2019-01-31T08:01:46.156Z,96849.34
2019-01-31T08:04:12.800Z,96849.36
2019-01-31T08:06:39.549Z,96852.79
2019-01-31T08:09:07.871Z,96848.94
2019-01-31T08:11:34.415Z,96846.38
2019-01-31T08:14:01.057Z,96848.51
2019-01-31T08:16:27.528Z,96846.78
2019-01-31T08:18:57.257Z,96847.21
2019-01-31T08:21:24.889Z,96844.59
2019-01-31T08:23:51.404Z,96847.56
2019-01-31T08:26:17.937Z,96849.20
2019-01-31T08:28:44.711Z,96851.31
2019-01-31T08:31:11.299Z,96853.79
2019-01-31T08:33:37.854Z,96857.17
2019-01-31T08:36:04.695Z,96862.22
2019-01-31T08:38:31.480Z,96847.03
2019-01-31T08:40:58.122Z,96848.59
2019-01-31T08:43:24.589Z,96845.39
2019-01-31T08:45:51.140Z,96846.19
2019-01-31T08:48:17.679Z,96848.72
2019-01-31T08:50:44.725Z,96847.69
2019-01-31T08:53:11.219Z,96857.85
2019-01-31T08:55:37.882Z,96855.65
2019-01-31T08:58:04.837Z,96848.25
2019-01-31T09:00:31.496Z,96853.34
2019-01-31T09:02:58.896Z,96854.48
2019-01-31T09:05:25.863Z,96848.25
2019-01-31T09:07:52.377Z,96851.06
2019-01-31T09:10:24.529Z,96855.70
2019-01-31T09:12:51.185Z,96853.03
2019-01-31T09:15:22.040Z,96857.18
2019-01-31T09:17:49.069Z,96858.70
2019-01-31T09:20:33.389Z,96856.09
2019-01-31T09:23:27.913Z,96863.52
2019-01-31T09:26:35.669Z,96859.58
2019-01-31T09:29:29.323Z,96865.11
2019-01-31T09:32:35.416Z,96866.61
2019-01-31T09:35:29.964Z,96863.30
2019-01-31T09:38:36.431Z,96864.61
2019-01-31T09:41:27.090Z,96869.56
2019-01-31T09:44:53.841Z,96870.92
2019-01-31T09:47:32.125Z,96867.68
2019-01-31T09:50:28.009Z,96864.84
2019-01-31T09:53:29.722Z,96863.44
2019-01-31T09:56:35.724Z,96865.98
2019-01-31T09:59:44.897Z,96859.67
2019-01-31T10:02:49.914Z,96860.33
2019-01-31T10:05:50.416Z,96855.83
2019-01-31T10:08:51.342Z,96857.91
2019-01-31T10:11:54.630Z,96852.25
2019-01-31T10:14:39.712Z,96857.91
2019-01-31T10:17:30.494Z,96852.31
2019-01-31T10:20:53.502Z,96845.00
2019-01-31T10:23:28.353Z,96844.30
2019-01-31T10:26:26.522Z,96845.41
2019-01-31T10:29:02.148Z,96840.33
2019-01-31T10:32:06.785Z,96833.06
2019-01-31T10:34:58.117Z,96836.33
2019-01-31T10:38:12.264Z,96830.17
2019-01-31T10:41:29.778Z,96824.38
2019-01-31T10:44:20.468Z,96823.72
2019-01-31T10:47:17.107Z,96817.23
2019-01-31T10:50:02.082Z,96812.16
2019-01-31T10:53:17.096Z,96817.47
2019-01-31T10:56:10.905Z,96811.17
2019-01-31T10:59:19.707Z,96811.97
2019-01-31T11:02:30.427Z,96808.65
2019-01-31T11:05:29.195Z,96803.28
2019-01-31T11:08:46.976Z,96799.30
2019-01-31T11:11:43.447Z,96797.68
2019-01-31T11:14:17.564Z,96791.23
2019-01-31T11:16:55.676Z,96797.24
2019-01-31T11:20:12.368Z,96791.84
2019-01-31T11:23:07.861Z,96788.31
2019-01-31T11:26:13.290Z,96784.86
2019-01-31T11:29:17.945Z,96776.56
2019-01-31T11:32:08.036Z,96774.61
2019-01-31T11:35:00.784Z,96774.55
2019-01-31T11:38:07.849Z,96762.05
2019-01-31T11:41:05.720Z,96764.05
2019-01-31T11:44:01.308Z,96757.70
2019-01-31T11:46:58.939Z,96752.52
2019-01-31T11:49:49.996Z,96741.61
2019-01-31T11:53:10.764Z,96738.80
2019-01-31T11:56:15.350Z,96734.47
2019-01-31T11:59:02.353Z,96736.41
2019-01-31T12:01:29.798Z,96729.69
2019-01-31T12:04:02.474Z,96730.81
2019-01-31T12:06:29.123Z,96725.36
2019-01-31T12:08:55.638Z,96726.76
2019-01-31T12:11:22.121Z,96728.46
2019-01-31T12:13:48.659Z,96729.91
2019-01-31T12:16:15.421Z,96716.30
2019-01-31T12:18:41.956Z,96719.47
2019-01-31T12:21:08.469Z,96720.31
2019-01-31T12:23:35.212Z,96719.30
2019-01-31T12:26:02.107Z,96718.14
2019-01-31T12:28:29.318Z,96714.73
2019-01-31T12:30:56.296Z,96712.16
2019-01-31T12:33:22.964Z,96717.08
2019-01-31T12:35:49.783Z,96706.58
2019-01-31T12:38:16.319Z,96705.11
2019-01-31T12:40:42.910Z,96706.50
2019-01-31T12:43:09.432Z,96703.76
2019-01-31T12:45:36.168Z,96702.80
2019-01-31T12:48:03.269Z,96706.91
2019-01-31T12:50:29.805Z,96705.83
2019-01-31T12:52:56.422Z,96699.14
2019-01-31T12:55:22.940Z,96700.27
2019-01-31T12:57:49.858Z,96691.59
2019-01-31T13:00:21.847Z,96691.73
2019-01-31T13:02:48.513Z,96694.61
2019-01-31T13:05:15.272Z,96692.06
2019-01-31T13:07:42.017Z,96695.00
2019-01-31T13:10:09.730Z,96689.25
2019-01-31T13:12:36.442Z,96688.00
2019-01-31T13:15:03.953Z,96695.46
2019-01-31T13:17:30.557Z,96691.36
2019-01-31T13:19:58.030Z,96694.36
2019-01-31T13:22:25.087Z,96691.36
2019-01-31T13:24:52.082Z,96686.91
2019-01-31T13:27:18.579Z,96689.88
2019-01-31T13:29:45.070Z,96695.97
2019-01-31T13:32:11.957Z,96685.93
2019-01-31T13:34:38.480Z,96688.58
2019-01-31T13:37:05.491Z,96690.88
2019-01-31T13:39:32.241Z,96687.38
2019-01-31T13:41:59.183Z,96689.73
2019-01-31T13:44:25.711Z,96693.13
2019-01-31T13:46:52.334Z,96683.73
2019-01-31T13:49:18.929Z,96685.19
2019-01-31T13:51:45.730Z,96688.13
2019-01-31T13:54:12.235Z,96686.39
2019-01-31T13:56:45.599Z,96692.58
2019-01-31T13:59:07.287Z,96690.28
2019-01-31T14:01:34.192Z,96686.38
2019-01-31T14:04:00.815Z,96688.83
2019-01-31T14:06:27.725Z,96686.48
2019-01-31T14:08:54.422Z,96688.83
2019-01-31T14:11:20.984Z,96685.17
2019-01-31T14:13:47.510Z,96684.80
2019-01-31T14:16:14.650Z,96690.04
2019-01-31T14:18:41.104Z,96683.01
2019-01-31T14:21:07.649Z,96673.89
2019-01-31T14:23:34.252Z,96685.52
2019-01-31T14:26:00.819Z,96680.33
2019-01-31T14:28:27.506Z,96684.28
2019-01-31T14:30:54.450Z,96688.62
2019-01-31T14:33:23.504Z,96683.22
2019-01-31T14:35:50.371Z,96680.30
2019-01-31T14:38:16.941Z,96686.98
2019-01-31T14:40:43.539Z,96688.33
2019-01-31T14:43:10.158Z,96692.56
2019-01-31T14:45:37.351Z,96690.67
2019-01-31T14:48:04.301Z,96690.72
2019-01-31T14:50:31.885Z,96691.69
2019-01-31T14:52:58.925Z,96694.29
2019-01-31T14:55:25.954Z,96700.02
2019-01-31T14:57:52.616Z,96690.32
2019-01-31T15:00:21.861Z,96693.16
2019-01-31T15:02:48.481Z,96694.37
2019-01-31T15:05:15.510Z,96696.89
2019-01-31T15:07:45.391Z,96694.93
2019-01-31T15:10:17.604Z,96695.48
2019-01-31T15:12:44.224Z,96698.77
2019-01-31T15:15:11.216Z,96696.34
2019-01-31T15:17:38.022Z,96700.37
2019-01-31T15:20:13.558Z,96707.83
2019-01-31T15:22:44.834Z,96702.69
2019-01-31T15:25:15.050Z,96701.11
2019-01-31T15:27:48.710Z,96707.73
2019-01-31T15:30:26.337Z,96704.84
2019-01-31T15:33:02.406Z,96707.66
2019-01-31T15:35:28.881Z,96701.00
2019-01-31T15:37:55.801Z,96701.20
2019-01-31T15:40:25.452Z,96705.19
2019-01-31T15:42:52.355Z,96702.33
2019-01-31T15:45:18.875Z,96700.20
2019-01-31T15:47:45.579Z,96701.11
2019-01-31T15:50:13.252Z,96705.56
2019-01-31T15:52:39.995Z,96701.31
2019-01-31T15:55:08.574Z,96705.73
2019-01-31T15:57:35.288Z,96709.66
2019-01-31T16:00:02.100Z,96701.52
2019-01-31T16:02:31.890Z,96705.39
2019-01-31T16:04:58.439Z,96697.22
2019-01-31T16:07:25.449Z,96698.91
2019-01-31T16:09:52.365Z,96694.42
2019-01-31T16:12:20.409Z,96692.94
2019-01-31T16:14:54.598Z,96695.37
2019-01-31T16:17:18.634Z,96695.22
2019-01-31T16:19:45.649Z,96700.81
2019-01-31T16:22:12.868Z,96697.12
2019-01-31T16:24:40.175Z,96698.58
2019-01-31T16:27:06.677Z,96683.20
2019-01-31T16:29:34.032Z,96685.32
2019-01-31T16:32:00.854Z,96684.02
2019-01-31T16:34:27.735Z,96691.83
2019-01-31T16:36:54.474Z,96695.01
2019-01-31T16:39:21.261Z,96689.98
2019-01-31T16:41:47.915Z,96686.64
2019-01-31T16:44:14.921Z,96687.16
2019-01-31T16:46:41.502Z,96683.72
2019-01-31T16:49:10.271Z,96692.70
2019-01-31T16:51:36.779Z,96690.91
2019-01-31T16:54:03.998Z,96692.15
2019-01-31T16:56:30.522Z,96691.77
2019-01-31T16:58:57.378Z,96698.31
2019-01-31T17:01:24.015Z,96696.23
2019-01-31T17:03:50.697Z,96701.41
2019-01-31T17:06:17.979Z,96687.68
2019-01-31T17:08:44.808Z,96694.53
2019-01-31T17:11:11.859Z,96694.46
2019-01-31T17:13:38.362Z,96692.23
2019-01-31T17:16:04.964Z,96688.72
2019-01-31T17:18:32.556Z,96691.69
2019-01-31T17:20:59.098Z,96685.70
2019-01-31T17:23:25.592Z,96684.01
2019-01-31T17:25:52.102Z,96678.43
2019-01-31T17:28:18.702Z,96676.30
2019-01-31T17:30:45.444Z,96680.63
2019-01-31T17:33:12.018Z,96674.70
2019-01-31T17:35:38.618Z,96679.63
2019-01-31T17:38:06.800Z,96678.55
2019-01-31T17:40:38.200Z,96671.06
2019-01-31T17:43:05.757Z,96677.23
2019-01-31T17:45:32.239Z,96672.91
2019-01-31T17:47:59.473Z,96673.92
2019-01-31T17:50:27.361Z,96679.28
2019-01-31T17:52:54.082Z,96678.50
2019-01-31T17:55:21.743Z,96679.72
2019-01-31T17:57:48.415Z,96671.05
2019-01-31T18:00:20.025Z,96674.42
2019-01-31T18:02:46.529Z,96677.72
2019-01-31T18:05:13.235Z,96683.81
2019-01-31T18:07:40.182Z,96676.55
2019-01-31T18:10:12.374Z,96672.63
2019-01-31T18:12:39.098Z,96672.20
2019-01-31T18:15:06.255Z,96672.13
2019-01-31T18:17:33.160Z,96672.08
2019-01-31T18:20:00.007Z,96669.49
2019-01-31T18:22:28.602Z,96665.10
2019-01-31T18:24:55.419Z,96669.31
2019-01-31T18:27:21.940Z,96667.09
2019-01-31T18:29:48.408Z,96664.95
2019-01-31T18:32:15.402Z,96662.36
2019-01-31T18:34:43.158Z,96661.91
2019-01-31T18:37:10.385Z,96660.60
2019-01-31T18:39:36.972Z,96659.78
2019-01-31T18:42:04.838Z,96656.45
2019-01-31T18:44:32.641Z,96659.12
2019-01-31T18:47:00.149Z,96653.22
2019-01-31T18:49:30.124Z,96654.57
2019-01-31T18:51:58.386Z,96653.67
2019-01-31T18:54:27.685Z,96649.83
2019-01-31T18:56:56.430Z,96645.08
2019-01-31T18:59:25.216Z,96649.00
2019-01-31T19:01:53.975Z,96652.04
2019-01-31T19:04:21.665Z,96649.92
2019-01-31T19:06:49.840Z,96655.52
2019-01-31T19:09:17.362Z,96649.97
2019-01-31T19:11:45.633Z,96648.28
2019-01-31T19:14:14.514Z,96658.22
2019-01-31T19:16:41.109Z,96654.98
2019-01-31T19:19:07.882Z,96652.01
2019-01-31T19:21:35.525Z,96649.45
2019-01-31T19:24:04.655Z,96648.50
2019-01-31T19:26:32.216Z,96645.05
2019-01-31T19:28:58.846Z,96644.56
2019-01-31T19:31:26.602Z,96641.60
2019-01-31T19:33:53.503Z,96647.25
2019-01-31T19:36:20.272Z,96635.31
2019-01-31T19:38:48.175Z,96643.86
2019-01-31T19:41:15.439Z,96638.68
2019-01-31T19:43:43.423Z,96641.64
2019-01-31T19:46:16.676Z,96636.37
2019-01-31T19:48:39.010Z,96634.10
2019-01-31T19:51:05.930Z,96631.08
2019-01-31T19:53:32.586Z,96624.27
2019-01-31T19:55:59.533Z,96620.44
2019-01-31T19:58:26.185Z,96620.94
2019-01-31T20:00:53.019Z,96626.14
2019-01-31T20:03:19.567Z,96615.89
2019-01-31T20:05:46.202Z,96614.20
2019-01-31T20:08:13.849Z,96609.00
2019-01-31T20:10:40.617Z,96605.56
2019-01-31T20:13:07.301Z,96600.42
2019-01-31T20:15:35.004Z,96597.03
2019-01-31T20:18:01.773Z,96604.02
2019-01-31T20:20:28.512Z,96600.38
2019-01-31T20:22:56.484Z,96599.16
2019-01-31T20:25:24.902Z,96597.48
2019-01-31T20:27:52.505Z,96591.52
2019-01-31T20:30:21.443Z,96585.53
2019-01-31T20:32:48.152Z,96593.70
2019-01-31T20:35:15.001Z,96585.97
2019-01-31T20:37:41.655Z,96587.27
2019-01-31T20:40:10.393Z,96588.08
2019-01-31T20:42:37.153Z,96585.47
2019-01-31T20:45:06.294Z,96586.34
2019-01-31T20:47:33.247Z,96584.61
2019-01-31T20:49:59.876Z,96582.87
2019-01-31T20:52:28.795Z,96587.12
2019-01-31T20:54:55.403Z,96594.42
2019-01-31T20:57:22.249Z,96583.72
2019-01-31T20:59:50.988Z,96587.12
2019-01-31T21:02:17.793Z,96586.25
2019-01-31T21:04:44.441Z,96573.36
2019-01-31T21:07:11.140Z,96571.63
2019-01-31T21:09:38.754Z,96566.95
2019-01-31T21:12:05.501Z,96564.39
2019-01-31T21:14:32.137Z,96555.37
2019-01-31T21:17:00.097Z,96552.78
2019-01-31T21:19:30.598Z,96552.36
2019-01-31T21:21:59.439Z,96541.64
2019-01-31T21:24:28.667Z,96533.92
2019-01-31T21:26:55.551Z,96526.97
2019-01-31T21:29:24.338Z,96525.21
2019-01-31T21:31:50.828Z,96528.66
2019-01-31T21:34:18.405Z,96531.34
2019-01-31T21:36:45.939Z,96543.45
2019-01-31T21:39:14.316Z,96548.66
2019-01-31T21:41:41.373Z,96538.30
2019-01-31T21:44:07.982Z,96538.27
2019-01-31T21:46:34.550Z,96540.87
2019-01-31T21:49:01.393Z,96528.84
2019-01-31T21:51:28.053Z,96528.44
2019-01-31T21:53:54.545Z,96521.15
2019-01-31T21:56:25.394Z,96510.02
2019-01-31T21:58:52.420Z,96501.44
2019-01-31T22:01:18.941Z,96506.52
2019-01-31T22:03:47.632Z,96512.56
2019-01-31T22:06:22.326Z,96510.47
2019-01-31T22:08:45.010Z,96509.24
2019-01-31T22:11:11.851Z,96517.45
2019-01-31T22:13:38.363Z,96510.65
2019-01-31T22:16:04.866Z,96499.99
2019-01-31T22:18:31.530Z,96500.44
2019-01-31T22:21:01.415Z,96489.66
2019-01-31T22:23:27.922Z,96497.34
2019-01-31T22:25:54.985Z,96497.39
2019-01-31T22:28:21.871Z,96497.41
2019-01-31T22:30:50.515Z,96495.30
2019-01-31T22:33:17.116Z,96489.73
2019-01-31T22:35:44.618Z,96490.15
2019-01-31T22:38:11.184Z,96495.27
2019-01-31T22:40:37.727Z,96488.81
2019-01-31T22:43:04.611Z,96489.70
2019-01-31T22:45:31.386Z,96483.69
2019-01-31T22:47:58.017Z,96481.09
2019-01-31T22:50:24.732Z,96484.95
2019-01-31T22:52:51.406Z,96485.40
2019-01-31T22:55:19.381Z,96492.25
2019-01-31T22:57:46.361Z,96486.67
2019-01-31T23:00:52.631Z,96490.53
2019-01-31T23:03:19.157Z,96484.53
2019-01-31T23:05:45.735Z,96488.05
2019-01-31T23:08:12.289Z,96475.21
2019-01-31T23:10:38.840Z,96472.68
2019-01-31T23:13:05.422Z,96467.52
2019-01-31T23:15:32.467Z,96470.89
2019-01-31T23:17:59.104Z,96457.61
2019-01-31T23:20:25.878Z,96460.62
2019-01-31T23:22:52.399Z,96454.22
2019-01-31T23:25:19.017Z,96454.28
2019-01-31T23:27:46.987Z,96458.58
2019-01-31T23:30:13.946Z,96465.89
2019-01-31T23:32:40.643Z,96453.91
2019-01-31T23:35:07.666Z,96455.20
2019-01-31T23:37:34.469Z,96443.17
2019-01-31T23:40:01.260Z,96441.91
2019-01-31T23:42:27.786Z,96448.80
2019-01-31T23:44:54.332Z,96442.45
2019-01-31T23:47:21.026Z,96445.05
2019-01-31T23:49:47.611Z,96446.36
2019-01-31T23:52:16.372Z,96444.22
2019-01-31T23:54:42.886Z,96447.20
2019-01-31T23:57:09.815Z,96437.76
2019-01-31T23:59:36.493Z,96441.61
